Time;durP1;ratioP1;P1;durP2;ratioP2;P2;SDS_P1;SDS_P2;PMS_P1;PMS_P2;Temp;Humidity;BMP_temperature;BMP_pressure;BME280_temperature;BME280_humidity;BME280_pressure;Samples;Min_cycle;Max_cycle;Signal;HPM_P1;HPM_P2
2023/12/01 00:02:24;;;;;;;44.83;14.13;;;-0.40;99.90;;;;;;5008740;28;20404;-86
2023/12/01 00:04:50;;;;;;;41.55;11.85;;;-0.30;99.90;;;;;;5004164;28;20026;-84
2023/12/01 00:07:16;;;;;;;37.05;10.23;;;-0.30;99.90;;;;;;5007986;28;20037;-86
2023/12/01 00:09:41;;;;;;;37.78;12.10;;;-0.30;99.90;;;;;;5002660;28;20032;-82
2023/12/01 00:12:07;;;;;;;28.73;8.38;;;-0.30;99.90;;;;;;5001412;28;20029;-85
2023/12/01 00:14:33;;;;;;;29.83;8.98;;;-0.30;99.90;;;;;;5005961;28;20114;-85
2023/12/01 00:16:59;;;;;;;39.10;12.43;;;-0.40;99.90;;;;;;5003886;28;20026;-83
2023/12/01 00:19:25;;;;;;;47.55;13.27;;;-0.40;99.90;;;;;;5005362;28;20041;-83
2023/12/01 00:21:50;;;;;;;39.65;11.65;;;-0.30;99.90;;;;;;4992260;28;20398;-84
2023/12/01 00:24:16;;;;;;;49.53;15.10;;;-0.40;99.90;;;;;;5001177;28;20546;-85
2023/12/01 00:26:41;;;;;;;44.88;13.15;;;-0.40;99.90;;;;;;5007965;28;20034;-86
2023/12/01 00:29:07;;;;;;;40.45;11.38;;;-0.30;99.90;;;;;;5002118;28;20475;-85
2023/12/01 00:31:33;;;;;;;37.00;11.32;;;-0.40;99.90;;;;;;5007575;28;20053;-86
2023/12/01 00:34:00;;;;;;;45.40;13.98;;;-0.40;99.90;;;;;;5008061;28;20030;-86
2023/12/01 00:36:25;;;;;;;47.88;13.88;;;-0.40;99.90;;;;;;4992824;28;20148;-83
2023/12/01 00:38:51;;;;;;;39.75;11.88;;;-0.40;99.90;;;;;;4993158;28;20555;-82
2023/12/01 00:41:17;;;;;;;41.20;13.73;;;-0.30;99.90;;;;;;5007094;28;20057;-82
2023/12/01 00:43:42;;;;;;;44.22;12.20;;;-0.30;99.90;;;;;;4991973;28;20034;-84
2023/12/01 00:46:08;;;;;;;38.08;11.55;;;-0.40;99.90;;;;;;4992071;28;20545;-83
2023/12/01 00:48:34;;;;;;;42.22;12.63;;;-0.40;99.90;;;;;;5002857;28;20030;-86
2023/12/01 00:51:01;;;;;;;56.00;17.83;;;-0.30;99.90;;;;;;5000993;28;20029;-84
2023/12/01 00:53:27;;;;;;;77.45;24.45;;;-0.40;99.90;;;;;;4990381;28;20032;-82
2023/12/01 00:55:53;;;;;;;62.72;19.17;;;-0.40;99.90;;;;;;5007656;28;20022;-86
2023/12/01 00:58:19;;;;;;;48.53;16.05;;;-0.30;99.90;;;;;;4991293;28;20029;-83
2023/12/01 01:00:44;;;;;;;49.53;14.80;;;-0.30;99.90;;;;;;5006960;28;20657;-82
2023/12/01 01:03:10;;;;;;;38.83;12.25;;;-0.20;99.90;;;;;;5004768;28;20036;-84
2023/12/01 01:05:36;;;;;;;42.55;12.35;;;-0.30;99.90;;;;;;4999757;28;20101;-82
2023/12/01 01:08:01;;;;;;;39.47;10.73;;;-0.30;99.90;;;;;;4991294;28;20048;-86
2023/12/01 01:10:27;;;;;;;37.03;12.48;;;-0.20;99.90;;;;;;4992420;28;20081;-84
2023/12/01 01:12:53;;;;;;;37.63;11.95;;;-0.30;99.90;;;;;;5006713;28;20026;-82
2023/12/01 01:15:18;;;;;;;52.78;15.18;;;-0.20;99.90;;;;;;5007643;28;20482;-83
2023/12/01 01:17:44;;;;;;;50.75;13.80;;;-0.30;99.90;;;;;;5003594;28;20040;-85
2023/12/01 01:20:10;;;;;;;45.75;14.30;;;-0.20;99.90;;;;;;5008247;28;20117;-83
2023/12/01 01:22:37;;;;;;;71.00;21.42;;;-0.20;99.90;;;;;;5002294;28;20038;-83
2023/12/01 01:25:04;;;;;;;83.15;25.25;;;-0.40;99.90;;;;;;5000604;28;20471;-86
2023/12/01 01:27:31;;;;;;;70.38;22.23;;;-0.40;99.90;;;;;;4999201;28;20044;-85
2023/12/01 01:29:57;;;;;;;58.92;18.92;;;-0.30;99.90;;;;;;5000958;28;20032;-83
2023/12/01 01:32:23;;;;;;;44.00;15.57;;;-0.30;99.90;;;;;;5007629;28;20109;-84
2023/12/01 01:34:50;;;;;;;42.25;13.68;;;-0.20;99.90;;;;;;5007381;28;20141;-87
2023/12/01 01:37:16;;;;;;;38.22;13.27;;;-0.20;99.90;;;;;;5001556;28;20072;-87
2023/12/01 01:39:42;;;;;;;37.05;12.13;;;-0.20;99.90;;;;;;5007365;28;20033;-85
2023/12/01 01:42:07;;;;;;;38.42;11.80;;;-0.20;99.90;;;;;;4999340;28;20455;-83
2023/12/01 01:44:33;;;;;;;27.98;10.75;;;-0.20;99.90;;;;;;4991504;28;20573;-82
2023/12/01 01:47:00;;;;;;;31.60;10.05;;;-0.10;99.90;;;;;;4991021;28;20171;-82
2023/12/01 01:49:26;;;;;;;26.73;8.63;;;-0.10;99.90;;;;;;5005684;28;20391;-82
2023/12/01 01:51:58;;;;;;;26.85;8.15;;;-0.10;99.90;;;;;;5007799;28;20044;-88
2023/12/01 01:54:24;;;;;;;27.52;7.75;;;-0.10;99.90;;;;;;5001828;28;20160;-85
2023/12/01 01:56:51;;;;;;;30.70;8.48;;;0.00;99.90;;;;;;4987668;28;20034;-83
2023/12/01 01:59:21;;;;;;;24.27;7.50;;;0.00;99.90;;;;;;4999649;28;20581;-82
2023/12/01 02:01:58;;;;;;;18.73;6.85;;;0.00;99.90;;;;;;5044333;28;20413;-84
2023/12/01 02:04:24;;;;;;;28.73;8.38;;;0.00;99.90;;;;;;5033986;28;20056;-83
2023/12/01 02:06:50;;;;;;;26.75;8.52;;;0.00;99.90;;;;;;5028820;28;20033;-84
2023/12/01 02:09:16;;;;;;;27.35;9.38;;;-0.10;99.90;;;;;;5068175;28;20032;-83
2023/12/01 02:11:43;;;;;;;27.83;8.93;;;-0.10;99.90;;;;;;5041644;28;20022;-83
2023/12/01 02:14:08;;;;;;;26.05;9.10;;;-0.10;99.90;;;;;;5017364;28;20037;-85
2023/12/01 02:16:34;;;;;;;29.55;10.07;;;0.00;99.90;;;;;;5025172;28;20352;-83
2023/12/01 02:19:00;;;;;;;25.50;9.23;;;0.00;99.90;;;;;;5038697;28;20032;-83
2023/12/01 02:21:27;;;;;;;20.85;6.43;;;0.00;99.90;;;;;;5036837;28;20068;-83
2023/12/01 02:23:54;;;;;;;27.05;9.30;;;0.00;99.90;;;;;;5039216;28;20461;-83
2023/12/01 02:26:21;;;;;;;22.77;7.75;;;0.00;99.90;;;;;;5018173;28;20103;-85
2023/12/01 02:28:47;;;;;;;25.23;9.43;;;0.00;99.90;;;;;;5042231;28;20025;-85
2023/12/01 02:31:13;;;;;;;25.55;9.07;;;0.00;99.90;;;;;;5020070;28;20036;-82
2023/12/01 02:33:39;;;;;;;24.48;8.50;;;0.00;99.90;;;;;;5069520;28;20047;-83
2023/12/01 02:36:06;;;;;;;22.10;7.55;;;0.00;99.90;;;;;;5026590;28;20029;-84
2023/12/01 02:38:32;;;;;;;19.17;7.50;;;0.00;99.90;;;;;;5020561;28;20053;-83
2023/12/01 02:40:58;;;;;;;25.92;7.93;;;0.00;99.90;;;;;;5020505;28;20053;-83
2023/12/01 02:43:24;;;;;;;25.73;8.77;;;0.00;99.90;;;;;;5043765;28;20059;-83
2023/12/01 02:45:50;;;;;;;24.13;8.35;;;0.00;99.90;;;;;;5052003;28;20600;-83
2023/12/01 02:48:17;;;;;;;27.35;8.32;;;0.00;99.90;;;;;;5022660;28;20399;-82
2023/12/01 02:50:45;;;;;;;21.95;7.13;;;0.00;99.90;;;;;;5043756;28;20485;-85
2023/12/01 02:53:10;;;;;;;21.77;7.25;;;0.00;99.90;;;;;;5027631;28;20025;-84
2023/12/01 02:55:36;;;;;;;23.85;7.13;;;0.00;99.90;;;;;;5068621;28;20024;-84
2023/12/01 02:58:02;;;;;;;22.30;6.60;;;0.10;99.90;;;;;;5027958;28;20490;-83
2023/12/01 03:00:29;;;;;;;19.98;6.72;;;0.10;99.90;;;;;;5024694;28;20046;-83
2023/12/01 03:02:55;;;;;;;20.15;6.57;;;0.00;99.90;;;;;;5014663;28;20034;-85
2023/12/01 03:05:21;;;;;;;23.35;7.32;;;0.00;99.90;;;;;;5018507;28;20034;-83
2023/12/01 03:07:47;;;;;;;28.63;9.82;;;0.10;99.90;;;;;;5043048;28;20104;-83
2023/12/01 03:10:14;;;;;;;24.73;8.40;;;0.10;99.90;;;;;;5023446;28;20029;-82
2023/12/01 03:12:42;;;;;;;23.92;7.65;;;0.10;99.90;;;;;;5024155;28;20022;-85
2023/12/01 03:15:13;;;;;;;21.33;7.75;;;0.10;99.90;;;;;;5028363;28;20109;-83
2023/12/01 03:17:40;;;;;;;23.30;7.75;;;0.10;99.90;;;;;;5008130;28;20033;-84
2023/12/01 03:20:10;;;;;;;22.23;7.97;;;0.10;99.90;;;;;;5019728;28;20056;-83
2023/12/01 03:22:37;;;;;;;19.50;5.95;;;0.10;99.90;;;;;;5010540;28;20025;-85
2023/12/01 03:25:03;;;;;;;19.33;5.95;;;0.20;99.90;;;;;;5012470;28;20049;-86
2023/12/01 03:27:29;;;;;;;23.40;7.60;;;0.20;99.90;;;;;;5023397;28;20033;-81
2023/12/01 03:29:54;;;;;;;21.05;6.75;;;0.20;99.90;;;;;;5023574;28;20022;-84
2023/12/01 03:32:20;;;;;;;20.33;6.32;;;0.20;99.90;;;;;;5014590;28;20022;-83
2023/12/01 03:34:46;;;;;;;16.00;5.03;;;0.20;99.90;;;;;;5014301;28;20477;-83
2023/12/01 03:37:12;;;;;;;19.60;6.45;;;0.20;99.90;;;;;;5028254;28;20079;-83
2023/12/01 03:39:37;;;;;;;20.90;6.20;;;0.20;99.90;;;;;;5025429;28;20029;-82
2023/12/01 03:42:04;;;;;;;22.88;7.32;;;0.20;99.90;;;;;;5019259;28;20029;-84
2023/12/01 03:44:30;;;;;;;20.00;6.72;;;0.20;99.90;;;;;;5034701;28;20036;-82
2023/12/01 03:46:55;;;;;;;20.70;7.05;;;0.20;99.90;;;;;;5023448;28;20026;-85
2023/12/01 03:49:21;;;;;;;22.85;7.93;;;0.20;99.90;;;;;;5010902;28;20041;-84
2023/12/01 03:51:47;;;;;;;26.08;8.70;;;0.20;99.90;;;;;;5009365;28;20057;-84
2023/12/01 03:54:13;;;;;;;27.00;9.75;;;0.20;99.90;;;;;;5039517;28;20033;-82
2023/12/01 03:56:39;;;;;;;24.40;8.77;;;0.30;99.90;;;;;;5014726;28;20034;-82
2023/12/01 03:59:09;;;;;;;19.73;7.68;;;0.30;99.90;;;;;;5015338;28;20032;-85
2023/12/01 04:01:39;;;;;;;20.02;6.72;;;0.30;99.90;;;;;;5008715;28;20083;-84
2023/12/01 04:04:05;;;;;;;20.80;7.23;;;0.30;99.90;;;;;;5011794;28;20022;-83
2023/12/01 04:06:34;;;;;;;18.63;6.95;;;0.30;99.90;;;;;;5030858;28;20042;-83
2023/12/01 04:09:05;;;;;;;16.13;4.85;;;0.30;99.90;;;;;;5033110;28;20106;-84
2023/12/01 04:11:32;;;;;;;22.90;8.18;;;0.30;99.90;;;;;;5014631;28;20033;-83
2023/12/01 04:13:58;;;;;;;18.83;6.13;;;0.30;99.90;;;;;;5012490;28;20037;-84
2023/12/01 04:16:24;;;;;;;17.88;6.05;;;0.30;99.90;;;;;;5010717;28;20036;-85
2023/12/01 04:18:53;;;;;;;18.70;6.85;;;0.30;99.90;;;;;;5009839;28;20401;-82
2023/12/01 04:21:19;;;;;;;18.05;5.03;;;0.30;99.90;;;;;;5023362;28;20485;-83
2023/12/01 04:23:45;;;;;;;19.38;6.53;;;0.30;99.90;;;;;;5033244;28;20030;-84
2023/12/01 04:26:12;;;;;;;23.20;6.82;;;0.30;99.90;;;;;;5009942;28;20035;-82
2023/12/01 04:28:40;;;;;;;17.23;6.32;;;0.30;99.90;;;;;;5011078;28;20523;-85
2023/12/01 04:31:06;;;;;;;16.65;5.40;;;0.30;99.90;;;;;;5011175;28;20498;-85
2023/12/01 04:33:32;;;;;;;14.90;5.40;;;0.30;99.90;;;;;;5009652;28;20052;-83
2023/12/01 04:35:58;;;;;;;15.63;4.97;;;0.40;99.90;;;;;;5031687;28;20116;-83
2023/12/01 04:38:23;;;;;;;17.38;4.93;;;0.40;99.90;;;;;;5009563;28;20112;-83
2023/12/01 04:40:50;;;;;;;14.52;5.40;;;0.40;99.90;;;;;;5004062;28;20049;-84
2023/12/01 04:43:17;;;;;;;20.02;6.97;;;0.40;99.90;;;;;;5010983;28;20022;-84
2023/12/01 04:45:43;;;;;;;19.20;7.05;;;0.30;99.90;;;;;;5024390;28;20045;-82
2023/12/01 04:48:09;;;;;;;16.77;5.47;;;0.30;99.90;;;;;;5009385;28;20170;-82
2023/12/01 04:50:44;;;;;;;17.05;5.35;;;0.30;99.90;;;;;;5012061;28;20033;-82
2023/12/01 04:53:10;;;;;;;29.65;9.57;;;0.40;99.90;;;;;;5026994;28;20124;-82
2023/12/01 04:55:36;;;;;;;24.83;9.52;;;0.40;99.90;;;;;;5026252;28;20038;-82
2023/12/01 04:58:02;;;;;;;23.33;8.82;;;0.30;99.90;;;;;;5023191;28;20420;-83
2023/12/01 05:00:27;;;;;;;20.45;6.88;;;0.30;99.90;;;;;;5029210;28;20052;-82
2023/12/01 05:03:01;;;;;;;18.27;5.97;;;0.30;99.90;;;;;;5024996;28;20033;-81
2023/12/01 05:05:29;;;;;;;14.73;5.25;;;0.30;99.90;;;;;;5026335;28;20030;-84
2023/12/01 05:07:57;;;;;;;12.57;4.57;;;0.40;99.90;;;;;;5019355;28;20419;-85
2023/12/01 05:10:25;;;;;;;16.55;4.85;;;0.40;99.90;;;;;;5020377;28;20034;-82
2023/12/01 05:12:54;;;;;;;17.00;4.57;;;0.40;99.90;;;;;;5022132;28;20038;-81
2023/12/01 05:15:25;;;;;;;14.43;4.53;;;0.40;99.90;;;;;;5018553;28;20395;-82
2023/12/01 05:17:56;;;;;;;16.13;5.03;;;0.40;99.90;;;;;;5038303;28;20463;-82
2023/12/01 05:20:23;;;;;;;;;;;0.30;99.90;;;;;;5009326;28;20049;-82
2023/12/01 05:22:56;;;;;;;13.52;4.38;;;0.30;99.90;;;;;;5022892;28;19917;-81
2023/12/01 05:25:25;;;;;;;19.25;5.53;;;0.30;99.90;;;;;;5003411;28;20075;-81
2023/12/01 05:27:56;;;;;;;13.32;5.03;;;0.30;99.90;;;;;;5036387;28;20025;-82
2023/12/01 05:30:27;;;;;;;20.17;7.40;;;0.40;99.90;;;;;;5024091;28;20069;-82
2023/12/01 05:32:54;;;;;;;20.05;6.95;;;0.40;99.90;;;;;;5004550;28;20045;-85
2023/12/01 05:35:20;;;;;;;19.73;6.57;;;0.40;99.90;;;;;;5010500;28;20052;-85
2023/12/01 05:37:48;;;;;;;15.63;5.15;;;0.30;99.90;;;;;;5019736;28;20524;-82
2023/12/01 05:40:22;;;;;;;13.85;5.10;;;0.40;99.90;;;;;;5008615;28;20092;-82
2023/12/01 05:42:50;;;;;;;16.95;5.50;;;0.40;99.90;;;;;;5024955;28;20410;-85
2023/12/01 05:45:16;;;;;;;14.43;5.40;;;0.30;99.90;;;;;;5004229;28;20030;-82
2023/12/01 05:47:46;;;;;;;14.93;4.97;;;0.30;99.90;;;;;;5046658;28;20029;-84
2023/12/01 05:50:17;;;;;;;16.27;5.15;;;0.40;99.90;;;;;;5019264;28;20040;-86
2023/12/01 05:52:45;;;;;;;10.80;3.03;;;0.40;99.90;;;;;;5023260;28;20046;-82
2023/12/01 05:55:15;;;;;;;13.27;3.78;;;0.40;99.90;;;;;;5021087;28;20029;-82
2023/12/01 05:57:53;;;;;;;12.95;4.18;;;0.40;99.90;;;;;;5030246;28;20052;-82
2023/12/01 06:00:24;;;;;;;11.18;3.92;;;0.40;99.90;;;;;;5025603;28;20053;-81
2023/12/01 06:02:53;;;;;;;11.82;3.78;;;0.40;99.90;;;;;;5008906;28;20076;-81
2023/12/01 06:05:20;;;;;;;9.32;2.60;;;0.40;99.90;;;;;;5021022;28;20471;-81
2023/12/01 06:07:50;;;;;;;11.13;3.08;;;0.40;99.90;;;;;;5018245;28;20056;-81
2023/12/01 06:10:17;;;;;;;12.88;4.00;;;0.40;99.90;;;;;;5017011;28;20026;-82
2023/12/01 06:12:43;;;;;;;10.80;3.65;;;0.40;99.90;;;;;;5028456;28;20037;-83
2023/12/01 06:15:13;;;;;;;13.63;3.70;;;0.40;99.90;;;;;;5007648;28;20033;-83
2023/12/01 06:17:40;;;;;;;12.38;3.90;;;0.40;99.90;;;;;;5009665;28;20025;-83
2023/12/01 06:20:17;;;;;;;10.77;3.50;;;0.40;99.90;;;;;;5008800;28;20506;-85
2023/12/01 06:22:50;;;;;;;8.35;2.60;;;0.40;99.90;;;;;;5006083;28;20032;-83
2023/12/01 06:25:21;;;;;;;10.05;2.63;;;0.40;99.90;;;;;;5010578;28;20025;-85
2023/12/01 06:27:47;;;;;;;;;;;0.40;99.90;;;;;;5020891;28;20144;-85
2023/12/01 06:30:14;;;;;;;13.32;4.03;;;0.40;99.90;;;;;;5025280;28;19909;-85
2023/12/01 06:32:45;;;;;;;15.95;5.28;;;0.40;99.90;;;;;;5006055;28;20116;-84
2023/12/01 06:35:14;;;;;;;15.35;4.85;;;0.30;99.90;;;;;;5041146;28;20331;-84
2023/12/01 06:37:41;;;;;;;11.65;4.88;;;0.30;99.90;;;;;;5020921;28;20034;-81
2023/12/01 06:40:15;;;;;;;13.57;4.75;;;0.30;99.90;;;;;;5025149;28;20059;-82
2023/12/01 06:42:46;;;;;;;17.00;6.03;;;0.20;99.90;;;;;;5006806;28;20025;-82
2023/12/01 06:45:13;;;;;;;18.45;7.13;;;0.30;99.90;;;;;;5025797;28;20021;-85
2023/12/01 06:47:41;;;;;;;20.45;7.30;;;0.20;99.90;;;;;;5036949;28;20037;-81
2023/12/01 06:50:09;;;;;;;18.00;6.68;;;0.20;99.90;;;;;;5039408;28;20549;-82
2023/12/01 06:52:35;;;;;;;21.83;8.15;;;0.10;99.90;;;;;;5037828;28;20565;-85
2023/12/01 06:55:01;;;;;;;20.30;6.82;;;0.10;99.90;;;;;;5025022;28;20371;-82
2023/12/01 06:57:27;;;;;;;20.42;6.93;;;0.20;99.90;;;;;;5012912;28;20052;-82
2023/12/01 06:59:53;;;;;;;22.13;8.20;;;0.20;99.90;;;;;;5025427;28;20094;-81
2023/12/01 07:02:19;;;;;;;21.27;7.60;;;0.10;99.90;;;;;;5008810;28;20041;-82
2023/12/01 07:04:44;;;;;;;21.63;7.53;;;0.00;99.90;;;;;;5011182;28;20030;-80
2023/12/01 07:07:12;;;;;;;18.45;6.60;;;0.10;99.90;;;;;;5008017;28;20117;-83
2023/12/01 07:09:41;;;;;;;19.85;7.82;;;0.10;99.90;;;;;;5025561;28;20096;-81
2023/12/01 07:12:07;;;;;;;18.00;6.68;;;0.00;99.90;;;;;;5021710;28;20041;-82
2023/12/01 07:14:33;;;;;;;17.77;6.07;;;0.00;99.90;;;;;;5005497;28;20026;-82
2023/12/01 07:16:59;;;;;;;20.42;6.75;;;-0.10;99.90;;;;;;5022384;28;20038;-81
2023/12/01 07:19:24;;;;;;;16.83;5.85;;;-0.10;99.90;;;;;;5005611;28;20076;-81
2023/12/01 07:21:50;;;;;;;15.52;5.45;;;-0.10;99.90;;;;;;5021110;28;20091;-81
2023/12/01 07:24:18;;;;;;;16.55;6.80;;;-0.10;99.90;;;;;;5025057;28;20026;-82
2023/12/01 07:26:44;;;;;;;16.77;5.72;;;-0.10;99.90;;;;;;5017779;28;20034;-83
2023/12/01 07:29:09;;;;;;;17.15;5.65;;;-0.20;99.90;;;;;;5026090;28;20037;-81
2023/12/01 07:31:35;;;;;;;14.75;6.28;;;-0.20;99.90;;;;;;5011075;28;20091;-82
2023/12/01 07:34:01;;;;;;;21.83;7.90;;;-0.20;99.90;;;;;;5012448;28;20056;-81
2023/12/01 07:36:28;;;;;;;19.20;7.43;;;-0.20;99.90;;;;;;5024654;28;20038;-83
2023/12/01 07:38:54;;;;;;;16.60;6.00;;;-0.20;99.90;;;;;;5030922;28;20032;-84
2023/12/01 07:41:21;;;;;;;20.33;7.03;;;-0.10;99.90;;;;;;5006888;28;20083;-83
2023/12/01 07:43:46;;;;;;;15.85;5.28;;;-0.20;99.90;;;;;;5027731;28;20030;-82
2023/12/01 07:46:12;;;;;;;13.95;4.45;;;-0.20;99.90;;;;;;5021150;28;20040;-82
2023/12/01 07:48:38;;;;;;;16.65;5.22;;;-0.10;99.90;;;;;;5029296;28;20091;-85
2023/12/01 07:51:04;;;;;;;17.60;5.78;;;-0.10;99.90;;;;;;5033122;28;20067;-83
2023/12/01 07:53:30;;;;;;;16.65;5.55;;;-0.10;99.90;;;;;;5010612;28;20124;-80
2023/12/01 07:55:56;;;;;;;17.85;6.03;;;-0.20;99.90;;;;;;5025702;28;20108;-84
2023/12/01 07:58:21;;;;;;;14.55;5.30;;;-0.30;99.90;;;;;;5014798;28;20413;-84
2023/12/01 08:00:47;;;;;;;14.10;5.15;;;-0.30;99.90;;;;;;5003609;28;20046;-82
2023/12/01 08:03:12;;;;;;;13.52;4.35;;;-0.20;99.90;;;;;;5022180;28;20390;-85
2023/12/01 08:05:39;;;;;;;16.05;5.00;;;-0.20;99.90;;;;;;5026088;28;20401;-85
2023/12/01 08:08:11;;;;;;;15.80;5.07;;;-0.20;99.90;;;;;;5004542;28;20210;-80
2023/12/01 08:10:41;;;;;;;13.50;5.32;;;-0.20;99.90;;;;;;5032416;28;20026;-82
2023/12/01 08:13:08;;;;;;;14.88;4.38;;;-0.20;99.90;;;;;;5049988;28;20029;-82
2023/12/01 08:15:33;;;;;;;15.98;4.80;;;-0.20;99.90;;;;;;5028301;28;20109;-82
2023/12/01 08:18:00;;;;;;;16.52;4.88;;;-0.20;99.90;;;;;;5006940;28;20112;-86
2023/12/01 08:20:28;;;;;;;23.48;8.23;;;-0.20;99.90;;;;;;5030620;28;20033;-82
2023/12/01 08:22:54;;;;;;;17.23;5.50;;;-0.30;99.90;;;;;;5023324;28;20030;-83
2023/12/01 08:25:22;;;;;;;14.93;4.85;;;-0.30;99.90;;;;;;5009283;28;20053;-83
2023/12/01 08:27:47;;;;;;;15.18;5.28;;;-0.30;99.90;;;;;;5041077;28;20123;-82
2023/12/01 08:30:13;;;;;;;15.27;5.65;;;-0.30;99.90;;;;;;5029792;28;20522;-84
2023/12/01 08:32:39;;;;;;;14.05;4.78;;;-0.20;99.90;;;;;;5026730;28;20060;-82
2023/12/01 08:35:05;;;;;;;12.15;4.60;;;-0.20;99.90;;;;;;5011128;28;20463;-83
2023/12/01 08:37:31;;;;;;;16.90;6.68;;;-0.20;99.90;;;;;;5013258;28;20030;-82
2023/12/01 08:39:57;;;;;;;17.52;6.10;;;-0.30;99.90;;;;;;5013126;28;20588;-83
2023/12/01 08:42:23;;;;;;;16.08;5.40;;;-0.30;99.90;;;;;;5028121;28;20033;-82
2023/12/01 08:44:48;;;;;;;14.20;4.97;;;-0.20;99.90;;;;;;5028288;28;20470;-84
2023/12/01 08:47:17;;;;;;;16.30;5.40;;;-0.20;99.90;;;;;;5006653;28;20033;-85
2023/12/01 08:49:43;;;;;;;18.30;5.82;;;-0.20;99.90;;;;;;5038153;28;20038;-83
2023/12/01 08:52:09;;;;;;;16.42;5.22;;;-0.20;99.90;;;;;;5010041;28;20041;-85
2023/12/01 08:54:35;;;;;;;17.00;5.28;;;-0.10;99.90;;;;;;5002687;28;20033;-85
2023/12/01 08:57:00;;;;;;;15.73;5.03;;;-0.20;99.90;;;;;;5015012;28;20021;-83
2023/12/01 08:59:27;;;;;;;14.20;4.85;;;-0.20;99.90;;;;;;5021534;28;20048;-82
2023/12/01 09:01:53;;;;;;;23.63;8.55;;;-0.20;99.90;;;;;;5020805;28;20056;-82
2023/12/01 09:04:20;;;;;;;22.33;7.70;;;-0.20;99.90;;;;;;5033633;28;20030;-84
2023/12/01 09:06:46;;;;;;;23.10;7.90;;;-0.30;99.90;;;;;;5002540;28;20033;-83
2023/12/01 09:09:12;;;;;;;17.95;5.85;;;-0.30;99.90;;;;;;4999110;28;21960;-82
2023/12/01 09:11:38;;;;;;;19.52;6.07;;;-0.30;99.90;;;;;;5004012;28;20454;-83
2023/12/01 09:14:03;;;;;;;17.70;6.15;;;-0.20;99.90;;;;;;5028204;28;20068;-85
2023/12/01 09:16:29;;;;;;;14.85;5.63;;;-0.10;99.90;;;;;;4999883;28;20167;-81
2023/12/01 09:18:54;;;;;;;18.75;5.72;;;0.00;99.90;;;;;;5021308;28;20037;-83
2023/12/01 09:21:20;;;;;;;16.50;5.75;;;-0.10;99.90;;;;;;4999357;28;20057;-82
2023/12/01 09:23:46;;;;;;;18.77;5.15;;;-0.10;99.90;;;;;;5016792;28;20052;-82
2023/12/01 09:26:18;;;;;;;15.20;5.43;;;-0.10;99.90;;;;;;5014740;28;20040;-82
2023/12/01 09:28:44;;;;;;;15.50;5.82;;;-0.10;99.90;;;;;;5014203;28;20081;-84
2023/12/01 09:31:11;;;;;;;17.48;5.25;;;0.00;99.90;;;;;;5005340;28;20030;-83
2023/12/01 09:33:37;;;;;;;17.55;5.80;;;0.00;99.90;;;;;;5004476;28;20033;-84
2023/12/01 09:36:04;;;;;;;13.23;4.18;;;0.10;99.90;;;;;;5032679;28;20037;-82
2023/12/01 09:38:31;;;;;;;16.35;5.63;;;0.10;99.90;;;;;;5000203;28;20022;-84
2023/12/01 09:40:57;;;;;;;22.05;7.40;;;0.00;99.90;;;;;;5020194;28;20046;-83
2023/12/01 09:43:23;;;;;;;22.23;7.20;;;0.00;99.90;;;;;;5000091;28;20025;-83
2023/12/01 09:45:50;;;;;;;17.45;6.07;;;0.00;99.90;;;;;;5015434;28;20044;-83
2023/12/01 09:48:19;;;;;;;18.90;7.60;;;0.10;99.90;;;;;;5003789;28;20025;-83
2023/12/01 09:50:49;;;;;;;18.45;5.93;;;0.10;99.90;;;;;;5000443;28;20501;-83
2023/12/01 09:53:16;;;;;;;18.63;6.05;;;0.20;99.90;;;;;;5002938;28;20030;-82
2023/12/01 09:55:42;;;;;;;15.40;4.95;;;0.10;99.90;;;;;;4998393;28;20061;-83
2023/12/01 09:58:12;;;;;;;16.17;5.28;;;0.30;99.90;;;;;;5012299;28;20029;-83
2023/12/01 10:00:38;;;;;;;16.80;5.10;;;0.20;99.90;;;;;;5033812;28;20033;-84
2023/12/01 10:03:04;;;;;;;14.85;5.10;;;0.10;99.90;;;;;;5039225;28;20103;-84
2023/12/01 10:05:32;;;;;;;17.80;5.75;;;0.20;99.90;;;;;;5015318;28;20026;-82
2023/12/01 10:07:58;;;;;;;19.30;6.40;;;0.30;99.90;;;;;;5000915;28;20025;-82
2023/12/01 10:10:26;;;;;;;16.27;5.72;;;0.40;99.90;;;;;;5024267;28;20030;-82
2023/12/01 10:13:07;;;;;;;20.52;6.88;;;0.30;99.90;;;;;;5017343;28;20061;-81
2023/12/01 10:15:38;;;;;;;17.60;6.53;;;0.20;99.90;;;;;;5001976;28;20068;-84
2023/12/01 10:18:09;;;;;;;18.08;6.10;;;0.30;99.90;;;;;;5021615;28;20033;-82
2023/12/01 10:20:35;;;;;;;17.60;6.38;;;0.30;99.90;;;;;;5018378;28;20072;-84
2023/12/01 10:23:15;;;;;;;15.70;5.25;;;0.30;99.90;;;;;;4999412;28;20028;-83
2023/12/01 10:25:45;;;;;;;16.98;6.28;;;0.40;99.90;;;;;;5025011;28;20033;-83
2023/12/01 10:28:12;;;;;;;15.45;5.78;;;0.40;99.90;;;;;;5042298;28;20064;-83
2023/12/01 10:30:50;;;;;;;16.08;5.00;;;0.40;99.90;;;;;;5010353;28;20473;-84
2023/12/01 10:33:16;;;;;;;12.73;4.10;;;0.20;99.90;;;;;;5021317;28;20042;-84
2023/12/01 10:36:01;;;;;;;11.65;4.30;;;0.30;99.90;;;;;;5025784;28;20041;-83
2023/12/01 10:38:27;;;;;;;13.90;4.32;;;0.40;99.90;;;;;;5003382;28;20418;-82
2023/12/01 10:40:54;;;;;;;14.65;4.55;;;0.30;99.90;;;;;;5020527;28;20122;-82
2023/12/01 10:43:20;;;;;;;13.32;5.03;;;0.40;99.90;;;;;;5008082;28;20049;-82
2023/12/01 10:45:49;;;;;;;13.95;4.65;;;0.30;99.90;;;;;;5005662;28;20140;-82
2023/12/01 10:48:19;;;;;;;13.05;4.50;;;0.40;99.90;;;;;;5016623;28;20072;-83
2023/12/01 10:50:47;;;;;;;13.38;4.45;;;0.30;99.90;;;;;;5004929;28;20041;-84
2023/12/01 10:53:15;;;;;;;14.13;4.80;;;0.30;99.90;;;;;;5010824;28;20038;-82
2023/12/01 10:55:47;;;;;;;14.00;4.75;;;0.40;99.90;;;;;;5049569;28;20086;-82
2023/12/01 10:58:35;;;;;;;13.77;5.75;;;0.40;99.90;;;;;;5007805;28;20498;-84
2023/12/01 11:01:02;;;;;;;15.32;5.03;;;0.30;99.90;;;;;;5005887;28;20140;-81
2023/12/01 11:03:30;;;;;;;14.63;5.35;;;0.30;99.90;;;;;;5021874;28;20032;-81
2023/12/01 11:06:10;;;;;;;14.68;4.13;;;0.30;99.90;;;;;;5047907;28;20044;-81
2023/12/01 11:08:41;;;;;;;11.23;3.40;;;0.40;99.90;;;;;;5033490;28;20029;-82
2023/12/01 11:11:16;;;;;;;13.70;4.38;;;0.40;99.90;;;;;;5026963;28;20025;-82
2023/12/01 11:14:18;;;;;;;11.48;3.05;;;0.40;99.90;;;;;;5050159;28;20047;-82
2023/12/01 11:16:47;;;;;;;12.60;4.28;;;0.40;99.90;;;;;;5016640;28;20048;-83
2023/12/01 11:19:14;;;;;;;13.82;5.13;;;0.30;99.90;;;;;;5026662;28;20025;-83
2023/12/01 11:21:43;;;;;;;11.70;4.38;;;0.30;99.90;;;;;;5016477;28;20041;-83
2023/12/01 11:24:32;;;;;;;10.68;3.10;;;0.30;99.90;;;;;;5020771;28;20146;-84
2023/12/01 11:27:05;;;;;;;10.57;3.22;;;0.40;99.90;;;;;;5025246;28;20142;-83
2023/12/01 11:29:36;;;;;;;12.40;3.35;;;0.40;99.90;;;;;;5022447;28;20020;-84
2023/12/01 11:32:03;;;;;;;10.60;3.45;;;0.40;99.90;;;;;;5020536;28;20030;-82
2023/12/01 11:34:30;;;;;;;11.38;3.58;;;0.40;99.90;;;;;;5009200;28;20034;-84
2023/12/01 11:37:00;;;;;;;14.60;5.57;;;0.40;99.90;;;;;;5008518;28;20037;-83
2023/12/01 11:39:27;;;;;;;16.55;5.65;;;0.30;99.90;;;;;;5023147;28;20029;-81
2023/12/01 11:42:01;;;;;;;15.40;6.65;;;0.30;99.90;;;;;;5038472;28;20041;-82
2023/12/01 11:44:38;;;;;;;13.15;5.05;;;0.40;99.90;;;;;;5003176;28;20331;-85
2023/12/01 11:47:06;;;;;;;14.10;4.75;;;0.30;99.90;;;;;;5005624;28;20036;-81
2023/12/01 11:49:38;;;;;;;12.25;4.55;;;0.40;99.90;;;;;;5007874;28;20026;-84
2023/12/01 11:52:24;;;;;;;14.38;4.63;;;0.40;99.90;;;;;;5007633;28;20071;-81
2023/12/01 11:54:50;;;;;;;14.85;4.75;;;0.40;99.90;;;;;;5000365;28;20030;-82
2023/12/01 11:57:17;;;;;;;11.13;3.45;;;0.30;99.90;;;;;;5029978;28;20470;-83
2023/12/01 11:59:44;;;;;;;8.73;2.78;;;0.40;99.90;;;;;;5004656;28;20030;-84
2023/12/01 12:02:10;;;;;;;8.73;3.20;;;0.40;99.90;;;;;;5010196;28;20497;-84
2023/12/01 12:04:39;;;;;;;10.25;3.40;;;0.30;99.90;;;;;;5006564;28;20033;-84
2023/12/01 12:07:06;;;;;;;13.63;4.22;;;0.40;99.90;;;;;;5018958;28;20040;-83
2023/12/01 12:09:33;;;;;;;9.65;3.60;;;0.30;99.90;;;;;;5007364;28;20044;-84
2023/12/01 12:12:05;;;;;;;11.95;4.10;;;0.10;99.90;;;;;;5005106;28;20267;-84
2023/12/01 12:14:32;;;;;;;10.00;2.75;;;0.10;99.90;;;;;;5008192;28;20021;-83
2023/12/01 12:16:59;;;;;;;10.52;3.58;;;0.10;99.90;;;;;;5022808;28;20145;-84
2023/12/01 12:19:25;;;;;;;9.30;3.03;;;0.20;99.90;;;;;;5006916;28;20110;-83
2023/12/01 12:21:51;;;;;;;9.98;3.00;;;0.10;99.90;;;;;;5006863;28;20470;-82
2023/12/01 12:24:17;;;;;;;11.77;3.50;;;0.10;99.90;;;;;;5002586;28;20022;-82
2023/12/01 12:26:43;;;;;;;13.30;3.65;;;0.10;99.90;;;;;;5002345;28;20422;-82
2023/12/01 12:29:10;;;;;;;10.10;3.35;;;0.10;99.90;;;;;;5006141;28;20045;-84
2023/12/01 12:31:37;;;;;;;10.63;3.92;;;0.00;99.90;;;;;;5006286;28;20018;-83
2023/12/01 12:34:04;;;;;;;12.55;3.83;;;0.00;99.90;;;;;;5017252;28;20383;-82
2023/12/01 12:36:32;;;;;;;12.82;4.38;;;0.10;99.90;;;;;;5014467;28;20057;-84
2023/12/01 12:39:06;;;;;;;12.07;4.07;;;0.10;99.90;;;;;;5020355;28;20046;-83
2023/12/01 12:41:36;;;;;;;12.23;3.97;;;0.20;99.90;;;;;;4999305;28;20128;-84
2023/12/01 12:44:04;;;;;;;12.10;3.85;;;0.00;99.90;;;;;;5047936;28;20034;-83
2023/12/01 12:46:31;;;;;;;12.65;3.25;;;-0.10;99.90;;;;;;5017198;28;20077;-82